Time;durP1;ratioP1;P1;durP2;ratioP2;P2;SDS_P1;SDS_P2;PMS_P1;PMS_P2;Temp;Humidity;BMP_temperature;BMP_pressure;BME280_temperature;BME280_humidity;BME280_pressure;Samples;Min_cycle;Max_cycle;Signal;HPM_P1;HPM_P2
2022/11/24 00:01:14;;;;;;;10.65;2.00;;;9.20;90.90;;;;;;5116568;28;20020;-75
2022/11/24 00:03:40;;;;;;;10.60;1.77;;;9.20;91.00;;;;;;5116502;28;20032;-74
2022/11/24 00:06:08;;;;;;;10.10;2.03;;;9.20;91.10;;;;;;5116384;28;20052;-74
2022/11/24 00:08:34;;;;;;;8.88;1.98;;;9.20;91.40;;;;;;5116396;28;20083;-75
2022/11/24 00:11:09;;;;;;;8.55;1.75;;;9.10;91.00;;;;;;5116393;28;20402;-75
2022/11/24 00:13:37;;;;;;;9.93;2.25;;;9.10;91.00;;;;;;5115234;28;20024;-75
2022/11/24 00:16:09;;;;;;;8.77;2.25;;;9.10;90.90;;;;;;5116338;28;20080;-75
2022/11/24 00:18:35;;;;;;;8.33;1.93;;;9.10;90.90;;;;;;5116286;28;20028;-74
2022/11/24 00:21:01;;;;;;;5.90;1.35;;;9.10;90.80;;;;;;5116176;28;20020;-75
2022/11/24 00:23:26;;;;;;;7.18;1.63;;;9.00;91.00;;;;;;5115249;28;20035;-74
2022/11/24 00:25:52;;;;;;;8.18;1.55;;;9.10;90.90;;;;;;5116111;28;20028;-75
2022/11/24 00:28:17;;;;;;;11.70;2.20;;;9.00;91.00;;;;;;5115979;28;20036;-75
2022/11/24 00:30:43;;;;;;;13.48;2.53;;;9.10;91.10;;;;;;5115115;28;20039;-75
2022/11/24 00:33:09;;;;;;;5.95;1.75;;;9.10;90.90;;;;;;5115972;28;20043;-75
2022/11/24 00:35:34;;;;;;;7.82;2.00;;;9.00;91.00;;;;;;5115912;28;20467;-75
2022/11/24 00:38:00;;;;;;;13.93;1.95;;;9.00;91.00;;;;;;5115986;28;20039;-74
2022/11/24 00:40:26;;;;;;;8.40;1.75;;;9.00;91.00;;;;;;5115780;28;20054;-74
2022/11/24 00:42:51;;;;;;;9.27;1.85;;;9.00;91.00;;;;;;5115778;28;20032;-74
2022/11/24 00:45:17;;;;;;;5.00;2.10;;;9.00;90.90;;;;;;5115707;28;20058;-74
2022/11/24 00:47:42;;;;;;;7.03;1.45;;;9.00;90.90;;;;;;5115593;28;20032;-75
2022/11/24 00:50:08;;;;;;;10.10;2.20;;;9.00;90.90;;;;;;5114691;28;20032;-74
2022/11/24 00:52:34;;;;;;;8.07;2.20;;;9.00;90.90;;;;;;5097660;28;20020;-74
2022/11/24 00:55:00;;;;;;;9.20;1.88;;;9.00;90.90;;;;;;5115522;28;20046;-75
2022/11/24 00:57:25;;;;;;;10.13;1.88;;;8.90;90.70;;;;;;5115467;28;20032;-75
2022/11/24 00:59:51;;;;;;;11.32;2.03;;;8.90;90.90;;;;;;5114508;28;20048;-75
2022/11/24 01:02:16;;;;;;;10.00;1.50;;;8.90;90.80;;;;;;5113446;28;20032;-75
2022/11/24 01:04:42;;;;;;;6.72;1.77;;;8.90;90.70;;;;;;5114396;28;20096;-74
2022/11/24 01:07:07;;;;;;;12.68;2.10;;;8.90;90.80;;;;;;5097385;28;20040;-74
2022/11/24 01:09:33;;;;;;;8.80;1.70;;;8.90;90.80;;;;;;5115161;28;20039;-75
2022/11/24 01:12:01;;;;;;;12.05;1.90;;;8.80;90.70;;;;;;5115217;28;20032;-74
2022/11/24 01:14:27;;;;;;;10.35;1.85;;;8.80;90.70;;;;;;5114918;28;20095;-75
2022/11/24 01:16:53;;;;;;;5.65;1.50;;;8.80;90.70;;;;;;5114247;28;20036;-74
2022/11/24 01:19:19;;;;;;;7.07;1.50;;;8.80;91.20;;;;;;5115050;28;20039;-75
2022/11/24 01:21:45;;;;;;;7.13;1.65;;;8.80;90.90;;;;;;5114996;28;20054;-74
2022/11/24 01:24:12;;;;;;;9.02;1.63;;;8.80;90.80;;;;;;5114962;28;20062;-75
2022/11/24 01:26:38;;;;;;;11.55;1.35;;;8.80;90.90;;;;;;5114834;28;20044;-74
2022/11/24 01:29:04;;;;;;;9.43;1.98;;;8.80;91.30;;;;;;5113882;28;20020;-75
2022/11/24 01:31:29;;;;;;;6.07;1.45;;;8.80;91.00;;;;;;5114790;28;20041;-75
2022/11/24 01:33:55;;;;;;;6.65;1.40;;;8.80;90.90;;;;;;5114787;28;20028;-74
2022/11/24 01:36:21;;;;;;;8.23;1.38;;;8.80;91.00;;;;;;5113767;28;20084;-75
2022/11/24 01:38:47;;;;;;;8.35;1.65;;;8.70;91.30;;;;;;5114689;28;20032;-74
2022/11/24 01:41:15;;;;;;;14.50;2.40;;;8.70;91.00;;;;;;5114607;28;20024;-75
2022/11/24 01:43:42;;;;;;;7.40;1.65;;;8.70;91.10;;;;;;5114587;28;20020;-74
2022/11/24 01:46:34;;;;;;;9.98;1.50;;;8.80;91.00;;;;;;5114535;28;20031;-74
2022/11/24 01:49:00;;;;;;;7.10;1.65;;;8.70;91.00;;;;;;5110459;28;20043;-75
2022/11/24 01:51:29;;;;;;;5.35;1.27;;;8.70;91.10;;;;;;5114473;28;20107;-74
2022/11/24 01:54:03;;;;;;;6.63;1.27;;;8.70;91.10;;;;;;5114418;28;20437;-74
2022/11/24 01:56:30;;;;;;;6.45;1.45;;;8.70;91.20;;;;;;5114367;28;20031;-75
2022/11/24 01:58:59;;;;;;;5.55;1.08;;;8.80;91.20;;;;;;5113425;28;20024;-74
2022/11/24 02:01:25;;;;;;;6.85;2.03;;;8.80;91.10;;;;;;5114275;28;20016;-75
2022/11/24 02:03:51;;;;;;;9.05;2.00;;;8.80;91.00;;;;;;5114199;28;20024;-75
2022/11/24 02:06:22;;;;;;;8.13;1.50;;;8.80;91.00;;;;;;5114084;28;20028;-74
2022/11/24 02:08:58;;;;;;;8.20;1.98;;;8.70;91.00;;;;;;5114110;28;20034;-74
2022/11/24 02:11:28;;;;;;;8.68;1.30;;;8.70;91.00;;;;;;5113177;28;20024;-75
2022/11/24 02:13:55;;;;;;;15.05;1.48;;;8.70;91.00;;;;;;5113695;28;20016;-75
2022/11/24 02:16:20;;;;;;;11.80;2.58;;;8.70;90.90;;;;;;5113902;28;20048;-75
2022/11/24 02:18:46;;;;;;;4.68;1.30;;;8.70;91.00;;;;;;5113967;28;20490;-75
2022/11/24 02:21:14;;;;;;;6.28;1.73;;;8.70;90.90;;;;;;5113929;28;20225;-74
2022/11/24 02:24:04;;;;;;;10.10;1.67;;;8.70;90.90;;;;;;5113907;28;20016;-75
2022/11/24 02:26:41;;;;;;;7.18;1.38;;;8.80;91.00;;;;;;5113816;28;20039;-74
2022/11/24 02:29:09;;;;;;;2.42;1.17;;;8.80;91.00;;;;;;5112884;28;20019;-75
2022/11/24 02:31:34;;;;;;;6.13;1.65;;;8.80;91.00;;;;;;5112810;28;20016;-74
2022/11/24 02:34:00;;;;;;;10.02;1.20;;;8.80;91.10;;;;;;5113758;28;20048;-74
2022/11/24 02:36:25;;;;;;;4.15;1.10;;;8.80;91.00;;;;;;5113710;28;20029;-75
2022/11/24 02:38:51;;;;;;;6.30;1.50;;;8.80;91.00;;;;;;5113682;28;20020;-75
2022/11/24 02:41:20;;;;;;;9.02;1.70;;;8.80;91.00;;;;;;5112651;28;20032;-75
2022/11/24 02:43:50;;;;;;;5.85;1.48;;;8.80;91.00;;;;;;5113773;28;20076;-74
2022/11/24 02:46:16;;;;;;;8.20;1.77;;;8.80;91.00;;;;;;5113505;28;20016;-75
2022/11/24 02:48:41;;;;;;;7.85;1.58;;;8.80;91.00;;;;;;5112614;28;20058;-74
2022/11/24 02:51:07;;;;;;;10.25;1.92;;;8.80;90.90;;;;;;5113577;28;20024;-74
2022/11/24 02:53:33;;;;;;;7.28;1.75;;;8.80;90.80;;;;;;5113677;28;20024;-75
2022/11/24 02:55:58;;;;;;;12.50;2.97;;;8.80;91.10;;;;;;5112588;28;20035;-74
2022/11/24 02:58:24;;;;;;;9.02;1.90;;;8.80;90.50;;;;;;5113503;28;20049;-75
2022/11/24 03:00:53;;;;;;;8.15;2.03;;;8.80;90.50;;;;;;5113472;28;20036;-74
2022/11/24 03:03:21;;;;;;;7.95;1.90;;;8.80;90.50;;;;;;5113448;28;20042;-74
2022/11/24 03:05:47;;;;;;;12.77;1.98;;;8.70;90.60;;;;;;5113415;28;20496;-75
2022/11/24 03:08:13;;;;;;;4.80;1.30;;;8.70;90.60;;;;;;5113262;28;20052;-75
2022/11/24 03:10:38;;;;;;;7.82;1.33;;;8.70;90.60;;;;;;5112348;28;20054;-75
2022/11/24 03:13:04;;;;;;;6.60;1.45;;;8.70;90.60;;;;;;5113370;28;20088;-75
2022/11/24 03:15:29;;;;;;;11.45;2.13;;;8.70;90.60;;;;;;5113150;28;20056;-75
2022/11/24 03:17:55;;;;;;;11.98;1.60;;;8.60;90.70;;;;;;5113458;28;20039;-75
2022/11/24 03:20:21;;;;;;;6.60;1.88;;;8.60;90.80;;;;;;5113296;28;20028;-74
2022/11/24 03:22:47;;;;;;;3.25;1.42;;;8.60;90.80;;;;;;5113270;28;20032;-74
2022/11/24 03:25:12;;;;;;;7.93;1.60;;;8.60;91.00;;;;;;5115753;28;20035;-75
2022/11/24 03:27:38;;;;;;;11.50;1.88;;;8.70;91.00;;;;;;5099210;28;20036;-75
2022/11/24 03:30:04;;;;;;;9.23;2.33;;;8.70;91.00;;;;;;5117194;28;20038;-75
2022/11/24 03:32:29;;;;;;;11.75;2.00;;;8.70;90.90;;;;;;5117156;28;20023;-74
2022/11/24 03:34:55;;;;;;;7.45;1.70;;;8.70;91.00;;;;;;5117115;28;20028;-74
2022/11/24 03:37:21;;;;;;;6.72;1.80;;;8.70;91.00;;;;;;5117062;28;20032;-75
2022/11/24 03:39:47;;;;;;;8.93;2.10;;;8.80;91.00;;;;;;5117015;28;20039;-75
2022/11/24 03:42:13;;;;;;;8.25;1.60;;;8.80;91.00;;;;;;5115958;28;20043;-75
2022/11/24 03:44:38;;;;;;;6.68;1.70;;;8.80;91.00;;;;;;5116911;28;20073;-74
2022/11/24 03:47:04;;;;;;;7.20;2.15;;;8.70;91.10;;;;;;5116788;28;20039;-74
2022/11/24 03:49:29;;;;;;;12.38;1.77;;;8.70;91.10;;;;;;5116822;28;20024;-75
2022/11/24 03:51:55;;;;;;;12.45;1.80;;;8.70;91.20;;;;;;5116792;28;20024;-74
2022/11/24 03:54:21;;;;;;;8.73;1.80;;;8.70;91.30;;;;;;5116730;28;20387;-75
2022/11/24 03:56:46;;;;;;;11.27;1.73;;;8.70;91.30;;;;;;5116810;28;20478;-75
2022/11/24 03:59:12;;;;;;;4.05;1.42;;;8.80;91.40;;;;;;5116746;28;20048;-74
2022/11/24 04:01:38;;;;;;;7.78;1.58;;;8.70;91.50;;;;;;5116573;28;20035;-74
2022/11/24 04:04:03;;;;;;;11.75;1.80;;;8.80;91.50;;;;;;5116697;28;20020;-75
2022/11/24 04:06:29;;;;;;;7.95;2.03;;;8.80;91.60;;;;;;5115311;28;20032;-74
2022/11/24 04:08:55;;;;;;;10.93;1.83;;;8.80;91.60;;;;;;5115356;28;20058;-74
2022/11/24 04:14:04;;;;;;;6.20;1.33;;;8.80;91.60;;;;;;5116335;28;20089;-74
2022/11/24 04:16:30;;;;;;;11.27;2.53;;;8.90;91.60;;;;;;5116180;28;20044;-75
2022/11/24 04:18:55;;;;;;;13.95;2.33;;;8.90;91.60;;;;;;5116246;28;20024;-74
2022/11/24 04:21:21;;;;;;;8.27;1.63;;;8.90;92.00;;;;;;5115242;28;20487;-74
2022/11/24 04:23:46;;;;;;;9.15;1.63;;;8.90;91.60;;;;;;5116179;28;20024;-74
2022/11/24 04:26:12;;;;;;;10.45;1.90;;;9.00;91.60;;;;;;5116124;28;20024;-75
2022/11/24 04:28:38;;;;;;;6.57;1.55;;;9.00;91.60;;;;;;5116000;28;20043;-74
2022/11/24 04:31:05;;;;;;;7.65;1.75;;;9.10;91.50;;;;;;5116042;28;20024;-74
2022/11/24 04:33:31;;;;;;;14.95;2.50;;;9.10;91.40;;;;;;5115974;28;20024;-75
2022/11/24 04:35:56;;;;;;;9.27;1.92;;;9.10;91.70;;;;;;5115845;28;20058;-75
2022/11/24 04:38:22;;;;;;;6.28;1.70;;;9.10;91.30;;;;;;5115890;28;20028;-75
2022/11/24 04:40:48;;;;;;;10.95;2.00;;;9.10;91.30;;;;;;5115832;28;20451;-74
2022/11/24 04:43:15;;;;;;;12.90;1.83;;;9.10;91.30;;;;;;5098056;28;20034;-74
2022/11/24 04:45:40;;;;;;;8.98;1.75;;;9.00;91.40;;;;;;5115765;28;20043;-74
2022/11/24 04:48:06;;;;;;;15.52;2.53;;;9.00;91.60;;;;;;5115638;28;20092;-74
2022/11/24 04:50:31;;;;;;;11.90;2.25;;;9.10;91.60;;;;;;5115637;28;20038;-74
2022/11/24 04:52:57;;;;;;;9.20;2.10;;;9.10;91.70;;;;;;5115721;28;20052;-74
2022/11/24 04:55:23;;;;;;;16.95;2.38;;;9.10;91.70;;;;;;5114602;28;20048;-74
2022/11/24 04:57:48;;;;;;;12.48;2.15;;;9.20;91.70;;;;;;5114441;28;20028;-75
2022/11/24 05:00:14;;;;;;;8.45;2.08;;;9.20;92.20;;;;;;5114565;28;20121;-75
2022/11/24 05:02:40;;;;;;;11.23;2.50;;;9.30;91.80;;;;;;5114438;28;20095;-75
2022/11/24 05:05:06;;;;;;;10.80;2.33;;;9.30;91.40;;;;;;5097528;28;20049;-74
2022/11/24 05:07:32;;;;;;;8.95;1.55;;;9.30;91.30;;;;;;5115162;28;20036;-74
2022/11/24 05:12:42;;;;;;;4.03;0.85;;;9.30;90.50;;;;;;5114512;28;20066;-74
2022/11/24 05:15:08;;;;;;;4.85;0.90;;;9.20;90.60;;;;;;5113819;28;20036;-74
2022/11/24 05:17:36;;;;;;;4.28;0.82;;;9.20;90.60;;;;;;5115250;28;20028;-74
2022/11/24 05:20:04;;;;;;;4.97;1.23;;;9.30;90.70;;;;;;5115199;28;20440;-74
2022/11/24 05:22:30;;;;;;;3.72;0.85;;;9.20;90.80;;;;;;5114950;28;20058;-74
2022/11/24 05:24:56;;;;;;;4.97;1.42;;;9.20;90.80;;;;;;5114042;28;20498;-74
2022/11/24 05:27:22;;;;;;;6.68;1.40;;;9.20;90.80;;;;;;5114851;28;20023;-74
2022/11/24 05:29:48;;;;;;;7.63;1.30;;;9.30;91.00;;;;;;5114882;28;20029;-74
2022/11/24 05:32:13;;;;;;;7.45;1.67;;;9.30;91.10;;;;;;5114818;28;20036;-74
2022/11/24 05:34:39;;;;;;;6.57;1.33;;;9.20;91.20;;;;;;5114824;28;20025;-74
2022/11/24 05:37:05;;;;;;;7.07;0.90;;;9.30;91.20;;;;;;5113688;28;20467;-74
2022/11/24 05:39:36;;;;;;;3.35;0.98;;;9.30;91.20;;;;;;5114691;28;20025;-74
2022/11/24 05:42:39;;;;;;;6.13;1.33;;;9.30;91.20;;;;;;5114647;28;20042;-74
2022/11/24 05:44:50;;;;;;;10.40;1.38;;;9.30;91.10;;;;;;5114436;28;20039;-74
2022/11/24 05:47:16;;;;;;;8.30;1.35;;;9.40;91.10;;;;;;5113978;28;20075;-74
2022/11/24 05:49:41;;;;;;;7.07;1.58;;;9.40;91.10;;;;;;5114413;28;20016;-74
2022/11/24 05:52:07;;;;;;;6.15;1.27;;;9.40;91.20;;;;;;5114455;28;20024;-74
2022/11/24 05:54:33;;;;;;;9.35;1.40;;;9.40;91.10;;;;;;5114430;28;20501;-74
2022/11/24 05:56:58;;;;;;;6.43;1.45;;;9.50;91.20;;;;;;5114368;28;20505;-74
2022/11/24 05:59:24;;;;;;;5.22;1.52;;;9.50;91.10;;;;;;5114339;28;20052;-74
2022/11/24 06:01:49;;;;;;;5.20;1.30;;;9.50;91.10;;;;;;5113429;28;20059;-74
2022/11/24 06:04:15;;;;;;;8.02;1.40;;;9.50;91.20;;;;;;5114247;28;20032;-74
2022/11/24 06:06:41;;;;;;;3.75;1.25;;;9.50;91.10;;;;;;5114116;28;20032;-74
2022/11/24 06:09:06;;;;;;;13.32;1.88;;;9.50;91.20;;;;;;5114075;28;20025;-74
2022/11/24 06:11:32;;;;;;;9.77;2.05;;;9.50;91.20;;;;;;5114128;28;20028;-74
2022/11/24 06:13:58;;;;;;;8.00;1.60;;;9.60;91.10;;;;;;5113168;28;20021;-74
2022/11/24 06:16:23;;;;;;;6.43;1.67;;;9.50;91.20;;;;;;5113876;28;20048;-74
2022/11/24 06:18:49;;;;;;;9.43;1.90;;;9.40;91.50;;;;;;5113975;28;20043;-74
2022/11/24 06:21:16;;;;;;;9.88;1.95;;;9.40;92.10;;;;;;5113039;28;20028;-74
2022/11/24 06:23:41;;;;;;;8.02;1.90;;;9.30;91.80;;;;;;5113919;28;20034;-74
2022/11/24 06:26:08;;;;;;;6.43;1.77;;;9.40;91.80;;;;;;5113889;28;20044;-74
2022/11/24 06:28:34;;;;;;;11.90;2.25;;;9.40;91.70;;;;;;5112770;28;20024;-74
2022/11/24 06:31:01;;;;;;;12.07;2.53;;;9.50;91.70;;;;;;5113789;28;20028;-74
2022/11/24 06:33:33;;;;;;;13.02;2.67;;;9.50;91.70;;;;;;5113783;28;20020;-74
2022/11/24 06:36:05;;;;;;;11.50;2.57;;;9.50;91.60;;;;;;5113816;28;20024;-74
2022/11/24 06:38:31;;;;;;;11.17;2.47;;;9.60;91.50;;;;;;5113648;28;20258;-74
2022/11/24 06:41:01;;;;;;;8.05;2.20;;;9.50;91.50;;;;;;5112775;28;20049;-74
2022/11/24 06:43:29;;;;;;;9.13;1.83;;;9.50;91.60;;;;;;5112801;28;20032;-74
2022/11/24 06:45:55;;;;;;;4.88;2.20;;;9.50;91.60;;;;;;5095757;28;20032;-74
2022/11/24 06:48:21;;;;;;;14.57;2.10;;;9.50;91.60;;;;;;5113517;28;20024;-74
2022/11/24 06:50:46;;;;;;;10.48;2.45;;;9.50;91.60;;;;;;5112713;28;20021;-74
2022/11/24 06:53:12;;;;;;;5.60;2.03;;;9.50;91.70;;;;;;5112544;28;20095;-74
2022/11/24 06:55:39;;;;;;;11.73;2.30;;;9.50;91.70;;;;;;5113540;28;20032;-74
2022/11/24 06:58:04;;;;;;;9.40;2.67;;;9.50;91.60;;;;;;5113383;28;20032;-75
2022/11/24 07:00:33;;;;;;;11.63;1.98;;;9.50;91.60;;;;;;5116662;28;20039;-74
2022/11/24 07:02:59;;;;;;;10.13;2.15;;;9.50;91.60;;;;;;5117740;28;20042;-74
2022/11/24 07:05:25;;;;;;;10.63;1.92;;;9.50;91.60;;;;;;5117680;28;20017;-74
2022/11/24 07:07:51;;;;;;;10.77;2.33;;;9.40;92.00;;;;;;5117487;28;20039;-74
2022/11/24 07:10:16;;;;;;;7.70;2.78;;;9.50;91.50;;;;;;5117581;28;20029;-74
2022/11/24 07:12:42;;;;;;;10.25;2.25;;;9.50;91.40;;;;;;5117540;28;20024;-74
2022/11/24 07:15:08;;;;;;;10.88;2.08;;;9.50;91.20;;;;;;5117335;28;20040;-74
2022/11/24 07:17:38;;;;;;;7.22;1.63;;;9.50;91.20;;;;;;5116379;28;20027;-75
2022/11/24 07:20:08;;;;;;;4.00;1.67;;;9.50;90.90;;;;;;5117408;28;20039;-74
2022/11/24 07:22:34;;;;;;;3.55;1.38;;;9.50;90.90;;;;;;5117399;28;20032;-74
2022/11/24 07:25:00;;;;;;;7.65;1.60;;;9.50;90.80;;;;;;5116418;28;20062;-74
2022/11/24 07:27:26;;;;;;;7.10;1.85;;;9.50;90.80;;;;;;5117173;28;20024;-74
2022/11/24 07:29:52;;;;;;;4.32;1.67;;;9.50;90.70;;;;;;5117142;28;20016;-74
2022/11/24 07:32:17;;;;;;;8.80;2.00;;;9.40;90.50;;;;;;5117133;28;20025;-75
2022/11/24 07:34:43;;;;;;;11.13;1.88;;;9.40;90.30;;;;;;5117087;28;20028;-74
2022/11/24 07:37:09;;;;;;;4.70;1.27;;;9.40;90.20;;;;;;5117058;28;20036;-75
2022/11/24 07:39:34;;;;;;;4.72;1.00;;;9.40;90.30;;;;;;5117060;28;20028;-74
2022/11/24 07:42:00;;;;;;;4.88;1.23;;;9.30;90.20;;;;;;5116998;28;20039;-74
2022/11/24 07:44:26;;;;;;;8.20;1.20;;;9.30;90.20;;;;;;5116931;28;20024;-75
2022/11/24 07:46:51;;;;;;;4.63;0.85;;;9.30;90.20;;;;;;5116825;28;20115;-74
2022/11/24 07:49:18;;;;;;;5.28;0.90;;;9.30;90.10;;;;;;5116861;28;20047;-75
2022/11/24 07:51:44;;;;;;;2.65;0.93;;;9.30;90.10;;;;;;5116798;28;20024;-74
2022/11/24 07:54:10;;;;;;;5.43;1.40;;;9.30;90.20;;;;;;5115744;28;20096;-75
2022/11/24 07:56:35;;;;;;;7.53;0.98;;;9.30;90.10;;;;;;5116724;28;20054;-74
2022/11/24 07:59:01;;;;;;;2.67;0.50;;;9.30;90.10;;;;;;5115780;28;20083;-75
2022/11/24 08:01:27;;;;;;;3.80;0.80;;;9.30;90.10;;;;;;5116585;28;20016;-75
2022/11/24 08:03:52;;;;;;;2.58;0.70;;;9.30;90.00;;;;;;5115657;28;20024;-75
2022/11/24 08:06:18;;;;;;;7.43;1.48;;;9.30;90.20;;;;;;5115616;28;20107;-75
2022/11/24 08:08:45;;;;;;;5.10;1.27;;;9.30;90.10;;;;;;5116345;28;20032;-74
2022/11/24 08:11:13;;;;;;;5.25;0.70;;;9.30;90.00;;;;;;5114978;28;20386;-75
2022/11/24 08:13:38;;;;;;;1.92;1.00;;;9.30;90.40;;;;;;5116399;28;20020;-75
2022/11/24 08:16:10;;;;;;;4.50;0.98;;;9.40;90.20;;;;;;5116184;28;20063;-75
2022/11/24 08:18:36;;;;;;;4.93;0.80;;;9.40;90.50;;;;;;5116298;28;20032;-75
2022/11/24 08:21:02;;;;;;;4.45;0.90;;;9.40;90.00;;;;;;5116269;28;20020;-74
2022/11/24 08:23:28;;;;;;;6.50;1.00;;;9.50;90.00;;;;;;5116202;28;20028;-75
2022/11/24 08:25:55;;;;;;;5.68;1.10;;;9.50;89.90;;;;;;5116163;28;20035;-75
2022/11/24 08:28:21;;;;;;;3.05;0.93;;;9.50;90.00;;;;;;5116053;28;20547;-74
2022/11/24 08:30:47;;;;;;;1.63;0.52;;;9.60;90.20;;;;;;5115985;28;20039;-74
2022/11/24 08:33:12;;;;;;;3.22;1.00;;;9.50;90.20;;;;;;5115071;28;20048;-75
2022/11/24 08:35:38;;;;;;;2.60;0.88;;;9.50;90.20;;;;;;5115999;28;20219;-75
2022/11/24 08:38:05;;;;;;;3.28;0.88;;;9.50;90.30;;;;;;5114921;28;20032;-74
2022/11/24 08:40:31;;;;;;;9.18;1.05;;;9.60;90.40;;;;;;5115884;28;20024;-75
2022/11/24 08:43:00;;;;;;;5.22;1.10;;;10.00;90.50;;;;;;5115852;28;20024;-75
2022/11/24 08:45:27;;;;;;;5.70;1.05;;;10.60;90.20;;;;;;5114850;28;20093;-75
2022/11/24 08:47:54;;;;;;;5.70;1.25;;;11.20;88.90;;;;;;5115682;28;20039;-75
2022/11/24 08:50:21;;;;;;;8.00;1.48;;;11.60;86.20;;;;;;5115666;28;20038;-75
2022/11/24 08:52:47;;;;;;;5.65;1.10;;;11.90;84.40;;;;;;5115791;28;20024;-74
2022/11/24 08:55:12;;;;;;;5.38;1.05;;;12.10;83.70;;;;;;5115564;28;20092;-74
2022/11/24 08:57:38;;;;;;;7.82;1.77;;;12.10;82.90;;;;;;5114606;28;20053;-74
2022/11/24 09:00:05;;;;;;;3.83;0.90;;;11.70;82.00;;;;;;5114546;28;20099;-75
2022/11/24 09:02:30;;;;;;;2.58;0.70;;;11.50;83.00;;;;;;5114488;28;20044;-74
2022/11/24 09:04:56;;;;;;;5.32;1.27;;;11.80;83.10;;;;;;5115398;28;20032;-75
2022/11/24 09:07:22;;;;;;;4.78;1.10;;;12.00;81.20;;;;;;5114377;28;20028;-74
2022/11/24 09:09:48;;;;;;;7.35;1.23;;;12.10;79.80;;;;;;5115225;28;20046;-75
2022/11/24 09:12:14;;;;;;;3.70;0.88;;;12.50;79.20;;;;;;5114308;28;20441;-74
2022/11/24 09:14:39;;;;;;;4.53;1.20;;;12.90;78.90;;;;;;5115018;28;20028;-75
2022/11/24 09:17:05;;;;;;;6.28;1.50;;;13.40;77.00;;;;;;5115210;28;20054;-75
2022/11/24 09:19:31;;;;;;;5.18;1.05;;;13.70;75.20;;;;;;5115121;28;20043;-74
2022/11/24 09:21:56;;;;;;;3.88;1.02;;;13.80;74.60;;;;;;5114199;28;20028;-74
2022/11/24 09:24:22;;;;;;;4.45;1.23;;;14.30;74.10;;;;;;5114992;28;20053;-75
2022/11/24 09:26:48;;;;;;;5.57;1.50;;;14.60;72.40;;;;;;5113815;28;20035;-75
2022/11/24 09:29:13;;;;;;;5.03;1.08;;;14.70;71.30;;;;;;5114915;28;20032;-74
2022/11/24 09:31:39;;;;;;;4.35;1.02;;;14.70;71.40;;;;;;5114879;28;20036;-74
2022/11/24 09:34:07;;;;;;;4.45;1.27;;;14.80;69.80;;;;;;5113857;28;20026;-75
2022/11/24 09:36:33;;;;;;;6.32;1.02;;;14.90;70.10;;;;;;5114785;28;20042;-74
2022/11/24 09:38:59;;;;;;;7.45;1.40;;;14.80;68.80;;;;;;5113713;28;20514;-75
2022/11/24 09:41:56;;;;;;;3.83;1.30;;;14.80;69.80;;;;;;5114661;28;20035;-74
2022/11/24 09:44:28;;;;;;;3.20;1.15;;;14.60;68.90;;;;;;5114672;28;20080;-74
2022/11/24 09:47:00;;;;;;;2.93;0.70;;;14.50;70.10;;;;;;5114592;28;20028;-74
2022/11/24 09:49:37;;;;;;;7.60;1.45;;;14.30;70.10;;;;;;5114610;28;20246;-75
2022/11/24 09:52:12;;;;;;;5.10;1.27;;;14.30;70.40;;;;;;5114539;28;20024;-74
2022/11/24 09:54:47;;;;;;;4.05;1.30;;;14.00;70.80;;;;;;5114513;28;20017;-75
2022/11/24 09:57:14;;;;;;;4.75;1.40;;;13.90;71.00;;;;;;5114414;28;20063;-75
2022/11/24 09:59:41;;;;;;;4.80;1.20;;;13.80;71.30;;;;;;5096361;28;20028;-75
2022/11/24 10:02:12;;;;;;;4.63;1.20;;;13.70;71.40;;;;;;5114358;28;20035;-75
2022/11/24 10:04:45;;;;;;;4.25;1.25;;;13.50;72.50;;;;;;5114315;28;20084;-75
2022/11/24 10:07:36;;;;;;;5.63;1.05;;;13.40;73.20;;;;;;5114093;28;20035;-74
2022/11/24 10:10:17;;;;;;;6.82;1.15;;;13.30;73.90;;;;;;5114183;28;20012;-75
2022/11/24 10:12:52;;;;;;;5.68;1.40;;;13.30;73.70;;;;;;5114146;28;20020;-75
2022/11/24 10:15:41;;;;;;;3.58;1.10;;;13.20;74.20;;;;;;5113836;28;20055;-75
2022/11/24 10:18:13;;;;;;;5.88;1.45;;;13.10;74.40;;;;;;5114144;28;20031;-75
2022/11/24 10:21:02;;;;;;;6.30;1.30;;;13.10;75.50;;;;;;5114178;28;20024;-75
2022/11/24 10:23:40;;;;;;;4.68;1.30;;;13.00;74.60;;;;;;5075870;28;20036;-75
2022/11/24 10:26:19;;;;;;;5.22;1.30;;;13.00;75.10;;;;;;5113975;28;20031;-75
2022/11/24 10:28:54;;;;;;;10.23;2.45;;;12.70;75.20;;;;;;5113803;28;20467;-74
2022/11/24 10:31:28;;;;;;;9.65;1.80;;;12.60;76.30;;;;;;5114014;28;20080;-75
2022/11/24 10:33:59;;;;;;;9.68;1.35;;;12.60;76.80;;;;;;5113708;28;20028;-75
2022/11/24 10:36:49;;;;;;;8.48;1.42;;;12.70;77.20;;;;;;5113944;28;20445;-74
2022/11/24 10:39:53;;;;;;;7.15;1.25;;;12.50;77.90;;;;;;5113794;28;20036;-75
2022/11/24 10:42:30;;;;;;;7.30;1.70;;;12.50;77.80;;;;;;5113747;28;20077;-75
2022/11/24 10:45:22;;;;;;;9.27;1.42;;;12.50;77.70;;;;;;5113600;28;20034;-74
2022/11/24 10:47:48;;;;;;;7.47;1.38;;;12.50;76.90;;;;;;5109933;28;20096;-74
2022/11/24 10:50:25;;;;;;;8.55;2.10;;;12.30;77.40;;;;;;5113503;28;20031;-75
2022/11/24 10:52:57;;;;;;;6.00;2.08;;;12.30;77.60;;;;;;5113745;28;20028;-75
2022/11/24 10:55:22;;;;;;;5.80;1.42;;;12.20;78.60;;;;;;5112639;28;20024;-75
2022/11/24 10:57:48;;;;;;;6.97;1.73;;;12.30;77.90;;;;;;5113670;28;20482;-75
2022/11/24 11:00:20;;;;;;;9.38;2.17;;;12.30;78.30;;;;;;5112658;28;20032;-74
2022/11/24 11:02:47;;;;;;;7.15;1.75;;;12.30;77.90;;;;;;5112410;28;20029;-75
2022/11/24 11:05:31;;;;;;;6.20;1.92;;;12.30;78.20;;;;;;5113413;28;20024;-75
2022/11/24 11:08:14;;;;;;;10.35;1.63;;;12.30;78.60;;;;;;5112307;28;20052;-74
2022/11/24 11:10:42;;;;;;;5.22;1.63;;;12.30;78.40;;;;;;5113435;28;20070;-74
2022/11/24 11:13:28;;;;;;;9.15;1.50;;;12.30;77.70;;;;;;5113366;28;20020;-74
2022/11/24 11:15:56;;;;;;;9.13;1.60;;;12.40;78.00;;;;;;5113016;28;20044;-75
2022/11/24 11:18:30;;;;;;;11.77;1.70;;;12.40;77.90;;;;;;5113344;28;20039;-74
2022/11/24 11:21:00;;;;;;;7.57;1.55;;;12.50;78.20;;;;;;5113352;28;20020;-74
2022/11/24 11:23:29;;;;;;;9.32;1.80;;;12.60;79.50;;;;;;5112302;28;20040;-74
2022/11/24 11:26:23;;;;;;;7.53;1.80;;;12.60;76.90;;;;;;5113247;28;20042;-75
2022/11/24 11:29:14;;;;;;;6.70;1.63;;;12.70;77.50;;;;;;5113350;28;20058;-74
2022/11/24 11:32:00;;;;;;;7.50;1.55;;;12.60;77.20;;;;;;5113210;28;20024;-75
2022/11/24 11:34:27;;;;;;;7.78;2.58;;;12.60;77.70;;;;;;5113122;28;20016;-74
2022/11/24 11:36:55;;;;;;;12.60;2.03;;;12.70;78.50;;;;;;5113114;28;20047;-74
2022/11/24 11:39:31;;;;;;;10.57;1.70;;;12.80;76.80;;;;;;5113107;28;20047;-75
2022/11/24 11:42:13;;;;;;;5.93;1.65;;;12.90;77.40;;;;;;5113196;28;20487;-75
2022/11/24 11:44:48;;;;;;;12.65;1.60;;;12.90;77.00;;;;;;5113164;28;20093;-75
2022/11/24 11:47:46;;;;;;;6.47;1.23;;;12.90;76.70;;;;;;5117032;28;20020;-74
2022/11/24 11:50:16;;;;;;;8.32;1.50;;;12.80;76.30;;;;;;5088716;28;20039;-75
2022/11/24 11:52:54;;;;;;;11.38;1.75;;;12.80;76.30;;;;;;5116869;28;20112;-75
2022/11/24 11:55:48;;;;;;;8.02;1.30;;;12.90;75.70;;;;;;5116962;28;20071;-74
2022/11/24 11:58:44;;;;;;;5.97;1.52;;;13.00;75.70;;;;;;5116750;28;20420;-75
2022/11/24 12:01:34;;;;;;;6.50;1.30;;;13.00;75.40;;;;;;5116844;28;20053;-75
2022/11/24 12:04:33;;;;;;;8.85;1.85;;;13.10;75.40;;;;;;5116642;28;20028;-75
2022/11/24 12:07:28;;;;;;;7.65;1.88;;;13.20;74.80;;;;;;5116532;28;20044;-75
2022/11/24 12:10:01;;;;;;;4.63;1.40;;;13.20;74.80;;;;;;5044184;28;20037;-75
2022/11/24 12:12:44;;;;;;;5.28;1.08;;;13.30;74.50;;;;;;5116498;28;20044;-75
2022/11/24 12:15:35;;;;;;;9.70;1.85;;;13.30;73.40;;;;;;5116254;28;20084;-75
2022/11/24 12:18:21;;;;;;;9.23;2.28;;;13.50;73.40;;;;;;5116347;28;20054;-75
2022/11/24 12:21:19;;;;;;;11.25;1.92;;;13.60;72.70;;;;;;5116469;28;20092;-75
2022/11/24 12:24:09;;;;;;;7.15;1.40;;;13.60;73.40;;;;;;5116269;28;20024;-75
2022/11/24 12:26:47;;;;;;;5.10;1.20;;;13.40;73.20;;;;;;5116244;28;20058;-75
2022/11/24 12:29:40;;;;;;;9.38;1.35;;;13.40;74.30;;;;;;5116147;28;20024;-75
2022/11/24 12:32:14;;;;;;;5.10;1.58;;;13.30;73.10;;;;;;5116264;28;20028;-75
2022/11/24 12:34:58;;;;;;;11.48;1.60;;;13.20;72.90;;;;;;5116205;28;20028;-75
2022/11/24 12:37:33;;;;;;;3.97;1.35;;;13.30;73.50;;;;;;5116015;28;20020;-74
2022/11/24 12:40:37;;;;;;;8.68;1.73;;;13.30;73.50;;;;;;5115975;28;20024;-74
2022/11/24 12:43:17;;;;;;;7.88;1.45;;;13.40;74.00;;;;;;5091796;28;20047;-75
2022/11/24 12:45:59;;;;;;;8.05;1.65;;;13.30;73.00;;;;;;5115825;28;20028;-75
2022/11/24 12:48:46;;;;;;;6.35;1.58;;;13.20;73.80;;;;;;5115863;28;20040;-75
2022/11/24 12:51:29;;;;;;;5.88;1.73;;;13.10;73.90;;;;;;5115681;28;20024;-75
2022/11/24 12:53:56;;;;;;;9.77;1.85;;;13.10;74.20;;;;;;5115654;28;20084;-75
2022/11/24 12:56:42;;;;;;;8.93;1.77;;;13.10;74.10;;;;;;5114830;28;20044;-75
2022/11/24 12:59:32;;;;;;;12.30;1.35;;;13.10;73.70;;;;;;5115631;28;20016;-75
2022/11/24 13:02:40;;;;;;;6.95;1.20;;;13.20;73.60;;;;;;5114506;28;20028;-75
2022/11/24 13:05:31;;;;;;;8.48;1.58;;;13.20;73.90;;;;;;5104491;28;20044;-75
2022/11/24 13:08:01;;;;;;;9.20;1.63;;;13.30;73.40;;;;;;5114332;28;20034;-75
2022/11/24 13:10:31;;;;;;;11.63;1.65;;;13.20;72.80;;;;;;5115306;28;20065;-75